createdAt,value
2023-10-29T00:01:28.091Z,100.00
2023-10-29T00:03:55.992Z,100.00
2023-10-29T00:04:34.601Z,100.00
2023-10-29T00:06:22.652Z,100.00
2023-10-29T00:08:49.185Z,100.00
2023-10-29T00:09:34.723Z,100.00
2023-10-29T00:11:15.719Z,100.00
2023-10-29T00:13:42.187Z,100.00
2023-10-29T00:14:34.736Z,100.00
2023-10-29T00:16:08.633Z,100.00
2023-10-29T00:18:35.049Z,100.00
2023-10-29T00:19:34.769Z,100.00
2023-10-29T00:21:01.428Z,100.00
2023-10-29T00:23:27.775Z,100.00
2023-10-29T00:24:34.801Z,100.00
2023-10-29T00:25:54.326Z,100.00
2023-10-29T00:28:20.759Z,100.00
2023-10-29T00:29:34.794Z,100.00
2023-10-29T00:30:47.115Z,100.00
2023-10-29T00:33:13.555Z,100.00
2023-10-29T00:34:34.768Z,100.00
2023-10-29T00:35:40.029Z,100.00
2023-10-29T00:38:06.437Z,100.00
2023-10-29T00:39:34.861Z,100.00
2023-10-29T00:40:32.912Z,100.00
2023-10-29T00:42:59.769Z,100.00
2023-10-29T00:44:34.824Z,100.00
2023-10-29T00:45:26.127Z,100.00
2023-10-29T00:47:52.767Z,100.00
2023-10-29T00:49:34.866Z,100.00
2023-10-29T00:50:19.528Z,100.00
2023-10-29T00:52:46.428Z,100.00
2023-10-29T00:54:34.881Z,100.00
2023-10-29T00:55:13.330Z,100.00
2023-10-29T00:57:40.030Z,100.00
2023-10-29T00:59:34.933Z,100.00
2023-10-29T01:00:07.610Z,100.00
2023-10-29T01:02:38.395Z,100.00
2023-10-29T01:04:34.949Z,100.00
2023-10-29T01:05:06.135Z,100.00
2023-10-29T01:07:33.836Z,100.00
2023-10-29T01:09:34.992Z,100.00
2023-10-29T01:10:00.855Z,100.00
2023-10-29T01:12:28.368Z,100.00
2023-10-29T01:14:35.104Z,100.00
2023-10-29T01:14:55.335Z,100.00
2023-10-29T01:17:22.481Z,100.00
2023-10-29T01:19:35.188Z,100.00
2023-10-29T01:19:49.099Z,100.00
2023-10-29T01:22:15.557Z,100.00
2023-10-29T01:24:35.088Z,100.00
2023-10-29T01:24:42.149Z,100.00
2023-10-29T01:27:08.999Z,100.00
2023-10-29T01:29:35.628Z,100.00
2023-10-29T01:29:36.209Z,100.00
2023-10-29T01:32:02.301Z,100.00
2023-10-29T01:34:28.774Z,100.00
2023-10-29T01:34:35.182Z,100.00
2023-10-29T01:36:55.239Z,100.00
2023-10-29T01:39:21.720Z,100.00
2023-10-29T01:39:35.210Z,100.00
2023-10-29T01:41:48.169Z,100.00
2023-10-29T01:44:14.759Z,100.00
2023-10-29T01:44:35.280Z,100.00
2023-10-29T01:46:41.162Z,100.00
2023-10-29T01:49:10.479Z,100.00
2023-10-29T01:49:35.242Z,100.00
2023-10-29T01:51:37.177Z,100.00
2023-10-29T01:54:04.403Z,100.00
2023-10-29T01:54:35.257Z,100.00
2023-10-29T01:56:31.052Z,100.00
2023-10-29T01:58:58.798Z,100.00
2023-10-29T01:59:35.301Z,100.00
2023-10-29T02:01:25.398Z,100.00
2023-10-29T02:03:52.040Z,100.00
2023-10-29T02:04:35.315Z,100.00
2023-10-29T02:06:19.388Z,100.00
2023-10-29T02:08:46.565Z,100.00
2023-10-29T02:09:35.422Z,100.00
2023-10-29T02:11:13.037Z,100.00
2023-10-29T02:13:39.457Z,100.00
2023-10-29T02:14:35.496Z,100.00
2023-10-29T02:16:06.424Z,100.00
2023-10-29T02:18:32.969Z,100.00
2023-10-29T02:19:35.411Z,100.00
2023-10-29T02:20:59.414Z,100.00
2023-10-29T02:23:25.800Z,100.00
2023-10-29T02:24:35.459Z,100.00
2023-10-29T02:25:52.213Z,100.00
2023-10-29T02:28:18.658Z,100.00
2023-10-29T02:29:35.549Z,100.00
2023-10-29T02:30:45.051Z,100.00
2023-10-29T02:33:11.477Z,100.00
2023-10-29T02:34:35.547Z,100.00
2023-10-29T02:35:38.092Z,100.00
2023-10-29T02:38:04.534Z,100.00
2023-10-29T02:39:35.577Z,100.00
2023-10-29T02:40:31.090Z,100.00
2023-10-29T02:42:57.758Z,100.00
2023-10-29T02:44:35.709Z,100.00
2023-10-29T02:45:24.260Z,100.00
2023-10-29T02:47:50.756Z,100.00
2023-10-29T02:49:35.617Z,100.00
2023-10-29T02:50:17.182Z,100.00
2023-10-29T02:52:43.527Z,100.00
2023-10-29T02:54:35.628Z,100.00
2023-10-29T02:55:09.966Z,100.00
2023-10-29T02:57:36.653Z,100.00
2023-10-29T02:59:35.679Z,100.00
2023-10-29T03:00:05.173Z,100.00
2023-10-29T03:02:31.698Z,100.00
2023-10-29T03:04:35.692Z,100.00
2023-10-29T03:04:58.868Z,100.00
2023-10-29T03:07:25.428Z,100.00
2023-10-29T03:09:35.800Z,100.00
2023-10-29T03:09:51.785Z,100.00
2023-10-29T03:12:18.162Z,100.00
2023-10-29T03:14:35.736Z,100.00
2023-10-29T03:14:44.574Z,100.00
2023-10-29T03:17:10.977Z,100.00
2023-10-29T03:19:35.752Z,100.00
2023-10-29T03:19:37.413Z,100.00
2023-10-29T03:22:05.677Z,100.00
2023-10-29T03:24:32.119Z,100.00
2023-10-29T03:24:35.806Z,100.00
2023-10-29T03:26:58.600Z,100.00
2023-10-29T03:29:25.004Z,100.00
2023-10-29T03:29:35.858Z,100.00
2023-10-29T03:31:52.023Z,100.00
2023-10-29T03:34:18.783Z,100.00
2023-10-29T03:34:35.812Z,100.00
2023-10-29T03:36:45.329Z,100.00
2023-10-29T03:39:11.764Z,100.00
2023-10-29T03:39:35.839Z,100.00
2023-10-29T03:41:38.247Z,100.00
2023-10-29T03:44:04.933Z,100.00
2023-10-29T03:44:35.919Z,100.00
2023-10-29T03:46:31.345Z,100.00
2023-10-29T03:48:58.101Z,100.00
2023-10-29T03:49:35.899Z,100.00
2023-10-29T03:51:29.283Z,100.00
2023-10-29T03:53:56.489Z,100.00
2023-10-29T03:54:35.939Z,100.00
2023-10-29T03:56:22.886Z,100.00
2023-10-29T03:58:49.356Z,100.00
2023-10-29T03:59:35.986Z,100.00
2023-10-29T04:01:16.730Z,100.00
2023-10-29T04:03:45.127Z,100.00
2023-10-29T04:04:35.969Z,100.00
2023-10-29T04:06:12.623Z,100.00
2023-10-29T04:08:40.068Z,100.00
2023-10-29T04:09:36.022Z,100.00
2023-10-29T04:11:06.491Z,100.00
2023-10-29T04:13:33.188Z,100.00
2023-10-29T04:14:36.165Z,100.00
2023-10-29T04:15:59.730Z,100.00
2023-10-29T04:18:28.975Z,100.00
2023-10-29T04:19:36.066Z,100.00
2023-10-29T04:20:55.875Z,100.00
2023-10-29T04:23:23.164Z,100.00
2023-10-29T04:24:36.083Z,100.00
2023-10-29T04:25:50.511Z,100.00
2023-10-29T04:28:17.004Z,100.00
2023-10-29T04:29:36.207Z,100.00
2023-10-29T04:30:43.533Z,100.00
2023-10-29T04:33:10.008Z,100.00
2023-10-29T04:34:36.128Z,100.00
2023-10-29T04:35:36.605Z,100.00
2023-10-29T04:38:03.165Z,100.00
2023-10-29T04:39:36.172Z,100.00
2023-10-29T04:40:29.622Z,100.00
2023-10-29T04:42:56.034Z,100.00
2023-10-29T04:44:36.249Z,100.00
2023-10-29T04:45:22.517Z,100.00
2023-10-29T04:47:51.952Z,100.00
2023-10-29T04:49:36.224Z,100.00
2023-10-29T04:50:21.518Z,100.00
2023-10-29T04:52:50.053Z,100.00
2023-10-29T04:54:36.221Z,100.00
2023-10-29T04:55:16.514Z,100.00
2023-10-29T04:57:42.894Z,100.00
2023-10-29T04:59:36.259Z,100.00
2023-10-29T05:00:10.199Z,100.00
2023-10-29T05:02:39.782Z,100.00
2023-10-29T05:04:36.319Z,100.00
2023-10-29T05:05:07.926Z,100.00
2023-10-29T05:07:34.685Z,100.00
2023-10-29T05:09:36.305Z,100.00
2023-10-29T05:10:01.045Z,100.00
2023-10-29T05:12:27.519Z,100.00
2023-10-29T05:14:36.326Z,100.00
2023-10-29T05:14:53.929Z,100.00
2023-10-29T05:17:20.429Z,100.00
2023-10-29T05:19:36.396Z,100.00
2023-10-29T05:19:46.777Z,100.00
2023-10-29T05:22:13.278Z,100.00
2023-10-29T05:24:36.432Z,100.00
2023-10-29T05:24:39.788Z,100.00
2023-10-29T05:27:06.260Z,100.00
2023-10-29T05:29:33.937Z,100.00
2023-10-29T05:29:36.496Z,100.00
2023-10-29T05:32:00.493Z,100.00
2023-10-29T05:34:26.869Z,100.00
2023-10-29T05:34:36.482Z,100.00
2023-10-29T05:36:53.267Z,100.00
2023-10-29T05:39:19.806Z,100.00
2023-10-29T05:39:36.487Z,100.00
2023-10-29T05:41:46.379Z,100.00
2023-10-29T05:44:12.771Z,100.00
2023-10-29T05:44:36.565Z,100.00
2023-10-29T05:46:40.368Z,100.00
2023-10-29T05:49:06.778Z,100.00
2023-10-29T05:49:36.561Z,100.00
2023-10-29T05:51:33.144Z,100.00
2023-10-29T05:53:59.693Z,100.00
2023-10-29T05:54:36.576Z,100.00
2023-10-29T05:56:26.210Z,100.00
2023-10-29T05:58:52.592Z,100.00
2023-10-29T05:59:36.618Z,100.00
2023-10-29T06:01:18.931Z,100.00
2023-10-29T06:03:45.447Z,100.00
2023-10-29T06:04:36.690Z,100.00
2023-10-29T06:06:12.127Z,100.00
2023-10-29T06:08:38.541Z,100.00
2023-10-29T06:09:36.797Z,100.00
2023-10-29T06:11:05.404Z,100.00
2023-10-29T06:13:33.921Z,100.00
2023-10-29T06:14:36.793Z,100.00
2023-10-29T06:16:00.317Z,100.00
2023-10-29T06:18:26.995Z,100.00
2023-10-29T06:19:36.770Z,100.00
2023-10-29T06:20:53.914Z,100.00
2023-10-29T06:23:21.306Z,100.00
2023-10-29T06:24:36.750Z,100.00
2023-10-29T06:25:47.945Z,100.00
2023-10-29T06:28:14.561Z,100.00
2023-10-29T06:29:36.810Z,100.00
2023-10-29T06:30:41.339Z,100.00
2023-10-29T06:33:07.736Z,100.00
2023-10-29T06:34:36.789Z,100.00
2023-10-29T06:35:34.337Z,100.00
2023-10-29T06:38:00.731Z,100.00
2023-10-29T06:39:36.826Z,100.00
2023-10-29T06:40:27.380Z,100.00
2023-10-29T06:42:53.761Z,100.00
2023-10-29T06:44:36.835Z,100.00
2023-10-29T06:45:20.188Z,100.00
2023-10-29T06:47:47.810Z,100.00
2023-10-29T06:49:36.863Z,100.00
2023-10-29T06:50:14.298Z,100.00
2023-10-29T06:52:40.863Z,100.00
2023-10-29T06:54:36.877Z,100.00
2023-10-29T06:55:09.982Z,100.00
2023-10-29T06:57:37.727Z,100.00
2023-10-29T06:59:36.973Z,100.00
2023-10-29T07:00:04.631Z,100.00
2023-10-29T07:02:32.343Z,100.00
2023-10-29T07:04:36.975Z,100.00
2023-10-29T07:04:59.790Z,100.00
2023-10-29T07:07:30.305Z,100.00
2023-10-29T07:09:36.914Z,100.00
2023-10-29T07:09:57.820Z,100.00
2023-10-29T07:12:24.252Z,100.00
2023-10-29T07:14:36.991Z,100.00
2023-10-29T07:14:50.886Z,100.00
2023-10-29T07:17:17.356Z,100.00
2023-10-29T07:19:36.992Z,100.00
2023-10-29T07:19:43.913Z,100.00
2023-10-29T07:22:10.475Z,100.00
2023-10-29T07:24:37.346Z,100.00
2023-10-29T07:24:38.038Z,100.00
2023-10-29T07:27:04.042Z,100.00
2023-10-29T07:29:30.491Z,100.00
2023-10-29T07:29:37.040Z,100.00
2023-10-29T07:31:57.373Z,100.00
2023-10-29T07:34:24.013Z,100.00
2023-10-29T07:34:37.030Z,100.00
2023-10-29T07:36:50.527Z,100.00
2023-10-29T07:39:17.038Z,100.00
2023-10-29T07:39:37.073Z,100.00
2023-10-29T07:41:43.507Z,100.00
2023-10-29T07:44:09.884Z,100.00
2023-10-29T07:44:37.192Z,100.00
2023-10-29T07:46:36.438Z,100.00
2023-10-29T07:49:03.896Z,100.00
2023-10-29T07:49:37.117Z,100.00
2023-10-29T07:51:30.318Z,100.00
2023-10-29T07:53:58.546Z,100.00
2023-10-29T07:54:37.176Z,100.00
2023-10-29T07:56:27.030Z,100.00
2023-10-29T07:57:56.912Z,100.00
2023-10-29T07:58:53.450Z,100.00
2023-10-29T08:01:20.816Z,100.00
2023-10-29T08:02:56.677Z,100.00
2023-10-29T08:03:47.569Z,100.00
2023-10-29T08:06:14.485Z,100.00
2023-10-29T08:07:56.576Z,100.00
2023-10-29T08:08:41.643Z,100.00
2023-10-29T08:11:08.196Z,100.00
2023-10-29T08:12:56.510Z,100.00
2023-10-29T08:13:34.624Z,100.00
2023-10-29T08:16:03.732Z,100.00
2023-10-29T08:17:56.630Z,100.00
2023-10-29T08:18:30.483Z,100.00
2023-10-29T08:20:57.235Z,100.00
2023-10-29T08:22:56.518Z,100.00
2023-10-29T08:23:25.790Z,100.00
2023-10-29T08:25:52.207Z,100.00
2023-10-29T08:27:56.511Z,100.00
2023-10-29T08:28:20.037Z,100.00
2023-10-29T08:30:49.882Z,100.00
2023-10-29T08:32:56.552Z,100.00
2023-10-29T08:33:16.384Z,100.00
2023-10-29T08:35:46.087Z,100.00
2023-10-29T08:37:56.529Z,100.00
2023-10-29T08:38:12.518Z,100.00
2023-10-29T08:40:39.083Z,100.00
2023-10-29T08:42:56.514Z,100.00
2023-10-29T08:43:06.269Z,100.00
2023-10-29T08:52:56.657Z,100.00
2023-10-29T08:54:33.568Z,100.00
2023-10-29T08:57:00.069Z,100.00
2023-10-29T08:57:56.520Z,100.00
2023-10-29T08:59:26.594Z,100.00
2023-10-29T09:01:54.395Z,100.00
2023-10-29T09:02:56.599Z,100.00
2023-10-29T09:04:21.636Z,100.00
2023-10-29T09:06:48.207Z,100.00
2023-10-29T09:07:56.509Z,100.00
2023-10-29T09:09:15.159Z,100.00
2023-10-29T09:11:44.385Z,100.00
2023-10-29T09:12:56.516Z,100.00
2023-10-29T09:14:12.347Z,100.00
2023-10-29T09:16:38.774Z,100.00
2023-10-29T09:17:56.602Z,100.00
2023-10-29T09:19:05.266Z,100.00
2023-10-29T09:21:31.680Z,100.00
2023-10-29T09:22:56.521Z,100.00
2023-10-29T09:23:58.167Z,100.00
2023-10-29T09:26:24.659Z,100.00
2023-10-29T09:27:56.530Z,100.00
2023-10-29T09:28:51.232Z,100.00
2023-10-29T09:31:21.561Z,100.00
2023-10-29T09:32:57.996Z,100.00
2023-10-29T09:33:48.638Z,100.00
2023-10-29T09:36:15.044Z,100.00
2023-10-29T09:37:56.507Z,100.00
2023-10-29T09:38:43.154Z,100.00
2023-10-29T09:41:09.889Z,100.00
2023-10-29T09:42:56.552Z,100.00
2023-10-29T09:43:43.893Z,100.00
2023-10-29T09:46:11.701Z,100.00
2023-10-29T09:47:56.707Z,100.00
2023-10-29T09:48:39.348Z,100.00
2023-10-29T09:51:07.798Z,100.00
2023-10-29T09:52:56.624Z,100.00
2023-10-29T09:53:38.927Z,100.00
2023-10-29T09:56:09.883Z,100.00
2023-10-29T09:57:56.556Z,100.00
2023-10-29T09:58:36.978Z,100.00
2023-10-29T10:01:05.407Z,100.00
2023-10-29T10:02:56.858Z,100.00
2023-10-29T10:03:32.622Z,97.96
2023-10-29T10:06:00.158Z,97.64
2023-10-29T10:07:56.597Z,97.64
2023-10-29T10:08:28.147Z,91.62
2023-10-29T10:10:56.191Z,91.53
2023-10-29T10:12:56.611Z,91.53
2023-10-29T10:13:42.742Z,90.65
2023-10-29T10:16:11.776Z,88.96
2023-10-29T10:17:56.733Z,88.96
2023-10-29T10:18:56.581Z,90.47
2023-10-29T10:21:25.561Z,89.35
2023-10-29T10:22:56.633Z,89.35
2023-10-29T10:23:55.299Z,87.59
2023-10-29T10:26:35.260Z,87.64
2023-10-29T10:27:56.664Z,87.64
2023-10-29T10:29:04.142Z,87.69
2023-10-29T10:31:36.580Z,86.28
2023-10-29T10:32:56.743Z,86.28
2023-10-29T10:34:18.379Z,87.45
2023-10-29T10:36:46.461Z,86.38
2023-10-29T10:37:56.754Z,86.38
2023-10-29T10:39:13.359Z,85.22
2023-10-29T10:41:44.731Z,83.28
2023-10-29T10:42:56.715Z,83.28
2023-10-29T10:44:13.756Z,82.09
2023-10-29T10:47:01.487Z,82.17
2023-10-29T10:47:56.846Z,82.17
2023-10-29T10:49:32.140Z,81.92
2023-10-29T10:52:02.504Z,83.07
2023-10-29T10:52:56.768Z,83.07
2023-10-29T10:54:30.696Z,83.66
2023-10-29T10:56:58.024Z,83.99
2023-10-29T10:57:56.759Z,83.99
2023-10-29T10:59:33.759Z,84.51
2023-10-29T11:02:00.805Z,87.14
2023-10-29T11:02:56.962Z,87.14
2023-10-29T11:04:30.285Z,87.05
2023-10-29T11:06:56.986Z,87.04
2023-10-29T11:07:56.768Z,87.04
2023-10-29T11:09:24.204Z,89.01
2023-10-29T11:12:05.485Z,86.28
2023-10-29T11:12:56.820Z,86.28
2023-10-29T11:14:32.008Z,86.04
2023-10-29T11:17:00.674Z,83.79
2023-10-29T11:17:56.803Z,83.79
2023-10-29T11:19:48.136Z,81.90
2023-10-29T11:22:28.476Z,81.59
2023-10-29T11:22:56.740Z,81.59
2023-10-29T11:25:10.117Z,81.76
2023-10-29T11:27:40.140Z,80.84
2023-10-29T11:27:56.751Z,80.84
2023-10-29T11:30:23.773Z,82.10
2023-10-29T11:33:11.588Z,84.30
2023-10-29T11:33:11.850Z,84.30
2023-10-29T11:35:38.749Z,84.56
2023-10-29T11:37:56.730Z,84.56
2023-10-29T11:38:23.826Z,85.98
2023-10-29T11:40:54.513Z,87.21
2023-10-29T11:42:56.733Z,87.21
2023-10-29T11:43:23.726Z,88.51
2023-10-29T11:45:58.069Z,88.98
2023-10-29T11:47:56.809Z,88.98
2023-10-29T11:48:25.644Z,89.26
2023-10-29T11:51:04.534Z,90.79
2023-10-29T11:52:56.767Z,90.79
2023-10-29T11:53:31.147Z,91.93
2023-10-29T11:56:00.807Z,91.59
2023-10-29T11:57:56.755Z,91.59
2023-10-29T11:58:27.871Z,91.30
2023-10-29T12:00:54.450Z,90.55
2023-10-29T12:02:56.973Z,90.55
2023-10-29T12:03:21.994Z,89.79
2023-10-29T12:05:53.281Z,88.48
2023-10-29T12:07:56.739Z,88.48
2023-10-29T12:08:20.353Z,89.08
2023-10-29T12:10:53.768Z,89.60
2023-10-29T12:12:56.781Z,89.60
2023-10-29T12:13:20.408Z,89.74
2023-10-29T12:15:49.033Z,91.24
2023-10-29T12:17:56.866Z,91.24
2023-10-29T12:18:21.251Z,94.14
2023-10-29T12:20:49.038Z,96.15
2023-10-29T12:22:56.736Z,96.15
2023-10-29T12:23:16.380Z,99.77
2023-10-29T12:25:44.204Z,100.00
2023-10-29T12:27:56.740Z,100.00
2023-10-29T12:28:11.095Z,100.00
2023-10-29T12:30:40.207Z,100.00
2023-10-29T12:32:56.821Z,100.00
2023-10-29T12:33:23.404Z,100.00
2023-10-29T12:35:54.842Z,100.00
2023-10-29T12:37:56.761Z,100.00
2023-10-29T12:38:22.850Z,100.00
2023-10-29T12:41:07.867Z,100.00
2023-10-29T12:42:56.756Z,100.00
2023-10-29T12:43:39.308Z,100.00
2023-10-29T12:46:10.912Z,100.00
2023-10-29T12:47:56.848Z,100.00
2023-10-29T12:48:57.028Z,100.00
2023-10-29T12:51:31.533Z,100.00
2023-10-29T12:52:56.767Z,100.00
2023-10-29T12:54:21.521Z,100.00
2023-10-29T12:56:55.495Z,100.00
2023-10-29T12:57:56.749Z,100.00
2023-10-29T12:59:31.983Z,100.00
2023-10-29T13:02:00.592Z,100.00
2023-10-29T13:02:56.957Z,100.00
2023-10-29T13:04:28.321Z,100.00
2023-10-29T13:06:57.114Z,100.00
2023-10-29T13:07:57.814Z,100.00
2023-10-29T13:09:25.960Z,100.00
2023-10-29T13:11:57.304Z,100.00
2023-10-29T13:12:56.766Z,100.00
2023-10-29T13:14:23.880Z,100.00
2023-10-29T13:16:57.250Z,100.00
2023-10-29T13:17:57.178Z,100.00
2023-10-29T13:19:24.829Z,100.00
2023-10-29T13:21:52.986Z,100.00
2023-10-29T13:22:56.897Z,100.00
2023-10-29T13:24:20.322Z,100.00
2023-10-29T13:26:47.469Z,100.00
2023-10-29T13:27:56.908Z,100.00
2023-10-29T13:29:13.916Z,100.00
2023-10-29T13:31:40.348Z,100.00
2023-10-29T13:32:56.850Z,100.00
2023-10-29T13:34:09.938Z,100.00
2023-10-29T13:36:38.470Z,100.00
2023-10-29T13:37:56.769Z,100.00
2023-10-29T13:39:09.166Z,100.00
2023-10-29T13:41:36.099Z,100.00
2023-10-29T13:42:56.754Z,100.00
2023-10-29T13:44:02.650Z,100.00
2023-10-29T13:46:29.594Z,100.00
2023-10-29T13:47:56.836Z,100.00
2023-10-29T13:48:56.409Z,100.00
2023-10-29T13:51:23.100Z,100.00
2023-10-29T13:52:56.773Z,100.00
2023-10-29T13:53:54.527Z,100.00
2023-10-29T13:56:23.878Z,100.00
2023-10-29T13:57:56.900Z,100.00
2023-10-29T13:58:50.647Z,100.00
2023-10-29T14:01:23.785Z,100.00
2023-10-29T14:02:58.283Z,100.00
2023-10-29T14:03:52.015Z,100.00
2023-10-29T14:06:19.239Z,100.00
2023-10-29T14:07:56.921Z,100.00
2023-10-29T14:08:46.225Z,100.00
2023-10-29T14:11:15.060Z,100.00
2023-10-29T14:12:56.777Z,100.00
2023-10-29T14:13:42.569Z,100.00
2023-10-29T14:16:10.911Z,100.00
2023-10-29T14:17:56.874Z,100.00
2023-10-29T14:18:37.474Z,100.00
2023-10-29T14:21:04.289Z,100.00
2023-10-29T14:22:56.790Z,100.00
2023-10-29T14:23:30.802Z,100.00
2023-10-29T14:25:57.271Z,100.00
2023-10-29T14:27:56.777Z,100.00
2023-10-29T14:28:23.956Z,100.00
2023-10-29T14:30:50.729Z,100.00
2023-10-29T14:32:56.969Z,100.00
2023-10-29T14:33:17.693Z,100.00
2023-10-29T14:35:44.263Z,100.00
2023-10-29T14:37:56.780Z,100.00
2023-10-29T14:38:11.146Z,100.00
2023-10-29T14:40:37.613Z,100.00
2023-10-29T14:43:09.493Z,100.00
2023-10-29T14:43:20.715Z,100.00
2023-10-29T14:45:52.523Z,100.00
2023-10-29T14:47:56.814Z,100.00
2023-10-29T14:48:22.190Z,98.85
2023-10-29T14:50:49.636Z,97.59
2023-10-29T14:52:56.798Z,97.59
2023-10-29T14:53:16.541Z,94.48
2023-10-29T14:55:47.278Z,94.16
2023-10-29T14:57:56.772Z,94.16
2023-10-29T14:58:16.727Z,94.26
2023-10-29T15:00:48.720Z,93.13
2023-10-29T15:02:56.902Z,93.13
2023-10-29T15:03:15.429Z,92.39
2023-10-29T15:05:42.345Z,91.95
2023-10-29T15:07:56.867Z,91.95
2023-10-29T15:08:09.137Z,91.89
2023-10-29T15:10:35.843Z,90.86
2023-10-29T15:12:56.766Z,90.86
2023-10-29T15:13:02.648Z,90.82
2023-10-29T15:15:30.291Z,88.92
2023-10-29T15:17:57.688Z,88.58
2023-10-29T15:17:58.522Z,88.58
2023-10-29T15:20:24.310Z,89.27
2023-10-29T15:22:50.802Z,88.63
2023-10-29T15:22:56.817Z,88.63
2023-10-29T15:25:17.406Z,88.41
2023-10-29T15:27:44.024Z,89.22
2023-10-29T15:27:56.779Z,89.22
2023-10-29T15:30:11.764Z,88.82
2023-10-29T15:32:38.977Z,90.26
2023-10-29T15:32:56.867Z,90.26
2023-10-29T15:35:06.146Z,90.07
2023-10-29T15:37:32.877Z,91.52
2023-10-29T15:37:56.832Z,91.52
2023-10-29T15:39:59.639Z,91.20
2023-10-29T15:42:26.447Z,91.04
2023-10-29T15:42:56.869Z,91.04
2023-10-29T15:44:53.144Z,91.47
2023-10-29T15:47:23.718Z,91.94
2023-10-29T15:47:57.288Z,91.94
2023-10-29T15:49:54.092Z,91.00
2023-10-29T15:52:21.142Z,92.00
2023-10-29T15:52:57.919Z,92.00
2023-10-29T15:54:48.349Z,91.52
2023-10-29T15:57:15.563Z,90.90
2023-10-29T15:57:56.807Z,90.90
2023-10-29T15:59:42.711Z,90.26
2023-10-29T16:02:09.386Z,90.80
2023-10-29T16:02:56.961Z,90.80
2023-10-29T16:04:36.128Z,92.10
2023-10-29T16:07:02.929Z,92.20
2023-10-29T16:07:58.191Z,92.20
2023-10-29T16:09:29.474Z,92.62
2023-10-29T16:11:56.032Z,92.83
2023-10-29T16:12:56.834Z,92.83
2023-10-29T16:14:23.457Z,94.09
2023-10-29T16:16:51.294Z,95.30
2023-10-29T16:17:57.003Z,95.30
2023-10-29T16:19:17.753Z,95.87
2023-10-29T16:21:45.246Z,96.36
2023-10-29T16:22:56.858Z,96.36
2023-10-29T16:24:11.851Z,97.20
2023-10-29T16:26:38.760Z,98.12
2023-10-29T16:27:56.802Z,98.12
2023-10-29T16:29:05.318Z,98.47
2023-10-29T16:31:31.884Z,98.75
2023-10-29T16:32:56.915Z,98.75
2023-10-29T16:33:58.520Z,98.93
2023-10-29T16:36:25.601Z,99.32
2023-10-29T16:37:56.843Z,99.32
2023-10-29T16:38:52.214Z,99.84
2023-10-29T16:41:18.791Z,100.00
2023-10-29T16:42:56.850Z,100.00
2023-10-29T16:43:48.404Z,99.29
2023-10-29T16:46:18.398Z,99.43
2023-10-29T16:47:56.872Z,99.43
2023-10-29T16:48:45.340Z,100.00
2023-10-29T16:51:11.899Z,100.00
2023-10-29T16:52:56.904Z,100.00
2023-10-29T16:53:39.534Z,100.00
2023-10-29T16:56:08.022Z,100.00
2023-10-29T16:57:56.821Z,100.00
2023-10-29T16:58:34.907Z,100.00
2023-10-29T17:01:02.139Z,100.00
2023-10-29T17:02:56.991Z,100.00
2023-10-29T17:03:28.662Z,100.00
2023-10-29T17:05:55.183Z,100.00
2023-10-29T17:07:57.903Z,100.00
2023-10-29T17:08:21.581Z,100.00
2023-10-29T17:10:48.223Z,100.00
2023-10-29T17:12:56.847Z,100.00
2023-10-29T17:13:15.679Z,100.00
2023-10-29T17:15:42.376Z,100.00
2023-10-29T17:17:56.913Z,100.00
2023-10-29T17:18:08.870Z,100.00
2023-10-29T17:20:35.415Z,100.00
2023-10-29T17:22:56.867Z,100.00
2023-10-29T17:23:01.985Z,100.00
2023-10-29T17:25:28.619Z,100.00
2023-10-29T17:27:55.533Z,100.00
2023-10-29T17:27:56.815Z,100.00
2023-10-29T17:30:23.297Z,100.00
2023-10-29T17:32:50.691Z,100.00
2023-10-29T17:32:56.906Z,100.00
2023-10-29T17:35:17.589Z,100.00
2023-10-29T17:37:44.312Z,100.00
2023-10-29T17:37:56.828Z,100.00
2023-10-29T17:40:11.310Z,100.00
2023-10-29T17:42:39.001Z,100.00
2023-10-29T17:42:56.838Z,100.00
2023-10-29T17:45:06.116Z,100.00
2023-10-29T17:47:32.564Z,100.00
2023-10-29T17:47:56.893Z,100.00
2023-10-29T17:49:59.453Z,100.00
2023-10-29T17:52:25.958Z,100.00
2023-10-29T17:52:56.826Z,100.00
2023-10-29T17:54:52.493Z,100.00
2023-10-29T17:57:19.090Z,100.00
2023-10-29T17:57:56.879Z,100.00
2023-10-29T17:59:45.529Z,100.00
2023-10-29T18:02:20.187Z,100.00
2023-10-29T18:02:56.903Z,100.00
2023-10-29T18:04:47.016Z,100.00
2023-10-29T18:07:14.530Z,100.00
2023-10-29T18:07:56.923Z,100.00
2023-10-29T18:09:41.104Z,100.00
2023-10-29T18:12:10.785Z,100.00
2023-10-29T18:12:56.872Z,100.00
2023-10-29T18:14:37.508Z,100.00
2023-10-29T18:17:04.371Z,100.00
2023-10-29T18:17:57.023Z,100.00
2023-10-29T18:19:31.494Z,100.00
2023-10-29T18:22:01.269Z,100.00
2023-10-29T18:22:56.831Z,100.00
2023-10-29T18:24:28.183Z,100.00
2023-10-29T18:26:57.771Z,100.00
2023-10-29T18:27:56.982Z,100.00
2023-10-29T18:29:24.293Z,100.00
2023-10-29T18:31:51.314Z,100.00
2023-10-29T18:32:57.109Z,100.00
2023-10-29T18:34:18.105Z,100.00
2023-10-29T18:36:45.107Z,100.00
2023-10-29T18:37:56.899Z,100.00
2023-10-29T18:39:20.822Z,100.00
2023-10-29T18:41:47.325Z,100.00
2023-10-29T18:42:56.849Z,100.00
2023-10-29T18:44:17.112Z,100.00
2023-10-29T18:46:44.000Z,100.00
2023-10-29T18:47:56.899Z,100.00
2023-10-29T18:49:10.436Z,100.00
2023-10-29T18:51:39.827Z,100.00
2023-10-29T18:52:56.827Z,100.00
2023-10-29T18:54:08.642Z,100.00
2023-10-29T18:56:47.149Z,100.00
2023-10-29T18:57:58.737Z,100.00
2023-10-29T18:59:28.322Z,100.00
2023-10-29T19:01:56.829Z,100.00
2023-10-29T19:02:58.181Z,100.00
2023-10-29T19:04:23.238Z,100.00
2023-10-29T19:06:58.021Z,99.99
2023-10-29T19:07:56.971Z,99.99
2023-10-29T19:09:24.553Z,100.00
2023-10-29T19:12:05.574Z,100.00
2023-10-29T19:12:56.824Z,100.00
2023-10-29T19:14:37.145Z,100.00
2023-10-29T19:17:09.261Z,100.00
2023-10-29T19:17:56.879Z,100.00
2023-10-29T19:19:41.891Z,99.88
2023-10-29T19:22:12.670Z,100.00
2023-10-29T19:22:56.834Z,23
2023-10-29T19:24:42.431Z,99.45
2023-10-29T19:27:10.240Z,100.00
2023-10-29T19:27:56.820Z,100.00
2023-10-29T19:29:36.738Z,100.00
2023-10-29T19:32:03.516Z,100.00
2023-10-29T19:32:56.881Z,100.00
2023-10-29T19:34:29.910Z,100.00
2023-10-29T19:36:56.427Z,100.00
2023-10-29T19:37:56.827Z,100.00
2023-10-29T19:39:22.952Z,100.00
2023-10-29T19:41:49.756Z,100.00
2023-10-29T19:42:56.828Z,100.00
2023-10-29T19:44:16.131Z,100.00
2023-10-29T19:46:43.021Z,100.00
2023-10-29T19:47:59.298Z,100.00
2023-10-29T19:49:09.390Z,100.00
2023-10-29T19:51:36.133Z,100.00
2023-10-29T19:52:56.814Z,100.00
2023-10-29T19:54:03.954Z,100.00
2023-10-29T19:56:30.448Z,100.00
2023-10-29T19:57:57.049Z,100.00
2023-10-29T19:59:01.204Z,100.00
2023-10-29T20:01:27.633Z,100.00
2023-10-29T20:02:56.982Z,100.00
2023-10-29T20:03:54.531Z,100.00
2023-10-29T20:06:21.084Z,100.00
2023-10-29T20:07:56.937Z,100.00
2023-10-29T20:08:48.329Z,100.00
2023-10-29T20:11:15.338Z,100.00
2023-10-29T20:12:56.819Z,100.00
2023-10-29T20:13:44.123Z,100.00
2023-10-29T20:16:11.174Z,100.00
2023-10-29T20:17:56.905Z,100.00
2023-10-29T20:18:38.207Z,100.00
2023-10-29T20:21:06.404Z,100.00
2023-10-29T20:22:56.819Z,100.00
2023-10-29T20:23:32.908Z,100.00
2023-10-29T20:26:04.425Z,100.00
2023-10-29T20:27:56.869Z,100.00
2023-10-29T20:28:33.713Z,100.00
2023-10-29T20:31:00.418Z,100.00
2023-10-29T20:32:56.895Z,100.00
2023-10-29T20:33:26.900Z,100.00
2023-10-29T20:35:53.455Z,100.00
2023-10-29T20:37:56.836Z,100.00
2023-10-29T20:38:19.851Z,100.00
2023-10-29T20:40:46.464Z,100.00
2023-10-29T20:42:56.842Z,100.00
2023-10-29T20:43:13.008Z,100.00
2023-10-29T20:45:39.572Z,100.00
2023-10-29T20:47:56.887Z,100.00
2023-10-29T20:48:08.093Z,100.00
2023-10-29T20:50:42.563Z,100.00
2023-10-29T20:52:56.890Z,100.00
2023-10-29T20:53:08.999Z,100.00